Terminal Aerodrome Forecast
Issued by NWS Corpus Christi, TX

Home | Current Version | Previous Version | Text Only | Print | Product List | Glossary On
Versions: 1 2 3 4 5 6 7 8 9 10 11 12 13 14 15 16 17 18
626
FTUS44 KCRP 252337
TAFVCT
TAF
KVCT 252337Z 2600/2624 14013KT P6SM SCT035 OVC150
     FM260200 14009KT P6SM BKN025
     FM260500 15008KT 4SM -SHRA BR OVC015
      TEMPO 2606/2610 5SM TSRA BR BKN020CB OVC090
     FM261530 16013KT P6SM BKN035 OVC150
     FM262000 15015G23KT P6SM VCTS BKN040CB OVC150=

USA.gov is the U.S. government's official web portal to all federal, state and local government web resources and services.